createdAt,value
2022-12-18T00:01:28.660Z,15.63
2022-12-18T00:03:56.896Z,15.82
2022-12-18T00:06:25.891Z,16.95
2022-12-18T00:08:52.671Z,16.30
2022-12-18T00:11:21.595Z,13.70
2022-12-18T00:13:48.866Z,16.17
2022-12-18T00:16:19.581Z,15.63
2022-12-18T00:18:46.408Z,15.98
2022-12-18T00:21:14.708Z,15.23
2022-12-18T00:23:43.966Z,14.57
2022-12-18T00:26:31.686Z,16.00
2022-12-18T00:29:05.856Z,16.88
2022-12-18T00:31:33.574Z,15.75
2022-12-18T00:34:00.685Z,16.02
2022-12-18T00:36:30.315Z,16.23
2022-12-18T00:39:00.988Z,16.40
2022-12-18T00:41:47.059Z,16.20
2022-12-18T00:44:15.932Z,17.70
2022-12-18T00:46:44.080Z,15.25
2022-12-18T00:49:11.240Z,16.13
2022-12-18T00:51:38.026Z,14.48
2022-12-18T00:54:04.759Z,14.20
2022-12-18T00:56:31.548Z,15.38
2022-12-18T00:58:58.400Z,16.33
2022-12-18T01:01:25.248Z,15.23
2022-12-18T01:03:52.049Z,14.93
2022-12-18T01:06:18.944Z,16.15
2022-12-18T01:08:45.755Z,16.38
2022-12-18T01:11:15.388Z,15.98
2022-12-18T01:13:42.473Z,15.15
2022-12-18T01:16:11.928Z,14.85
2022-12-18T01:18:38.720Z,15.82
2022-12-18T01:21:14.795Z,14.40
2022-12-18T01:23:42.322Z,14.95
2022-12-18T01:26:12.013Z,14.70
2022-12-18T01:28:39.076Z,16.13
2022-12-18T01:31:17.934Z,15.32
2022-12-18T01:33:45.676Z,15.55
2022-12-18T01:36:21.501Z,16.52
2022-12-18T01:38:48.652Z,15.23
2022-12-18T01:41:18.055Z,14.70
2022-12-18T01:43:48.295Z,14.85
2022-12-18T01:46:15.445Z,15.93
2022-12-18T01:48:43.276Z,15.52
2022-12-18T01:51:14.229Z,15.40
2022-12-18T01:53:43.284Z,15.82
2022-12-18T01:56:14.532Z,16.00
2022-12-18T01:58:57.478Z,16.55
2022-12-18T02:01:28.396Z,15.18
2022-12-18T02:03:55.271Z,16.92
2022-12-18T02:06:33.910Z,16.38
2022-12-18T02:09:22.132Z,14.75
2022-12-18T02:12:15.489Z,16.40
2022-12-18T02:15:03.754Z,15.48
2022-12-18T02:17:42.596Z,14.50
2022-12-18T02:20:45.343Z,14.40
2022-12-18T02:23:38.692Z,14.95
2022-12-18T02:26:05.659Z,15.93
2022-12-18T02:28:39.248Z,14.40
2022-12-18T02:31:09.005Z,15.18
2022-12-18T02:33:37.267Z,16.63
2022-12-18T02:36:05.548Z,15.70
2022-12-18T02:38:33.338Z,15.38
2022-12-18T02:41:01.405Z,15.88
2022-12-18T02:43:28.109Z,15.88
2022-12-18T02:46:00.586Z,14.90
2022-12-18T02:48:35.061Z,14.77
2022-12-18T02:51:15.580Z,15.45
2022-12-18T02:53:51.066Z,15.05
2022-12-18T02:56:28.100Z,15.32
2022-12-18T02:59:14.707Z,16.02
2022-12-18T03:01:55.844Z,14.38
2022-12-18T03:04:40.555Z,14.73
2022-12-18T03:07:16.623Z,15.27
2022-12-18T03:09:47.609Z,15.05
2022-12-18T03:12:27.768Z,15.48
2022-12-18T03:15:33.446Z,14.73
2022-12-18T03:18:10.012Z,13.13
2022-12-18T03:20:40.525Z,14.90
2022-12-18T03:23:15.192Z,15.32
2022-12-18T03:25:45.279Z,13.68
2022-12-18T03:28:16.717Z,16.65
2022-12-18T03:30:51.361Z,13.95
2022-12-18T03:33:24.956Z,16.23
2022-12-18T03:35:51.800Z,15.57
2022-12-18T03:38:18.712Z,14.93
2022-12-18T03:41:22.823Z,16.40
2022-12-18T03:44:31.029Z,16.17
2022-12-18T03:47:09.453Z,15.23
2022-12-18T03:49:58.886Z,14.45
2022-12-18T03:52:36.863Z,15.45
2022-12-18T03:55:06.384Z,13.27
2022-12-18T03:57:33.997Z,17.00
2022-12-18T04:00:12.560Z,16.70
2022-12-18T04:02:44.413Z,14.98
2022-12-18T04:05:14.246Z,16.35
2022-12-18T04:07:41.557Z,15.60
2022-12-18T04:10:10.650Z,15.95
2022-12-18T04:12:39.016Z,15.32
2022-12-18T04:15:07.040Z,16.02
2022-12-18T04:17:33.777Z,15.95
2022-12-18T04:20:00.553Z,16.52
2022-12-18T04:22:28.864Z,16.95
2022-12-18T04:24:57.039Z,16.08
2022-12-18T04:27:23.700Z,15.07
2022-12-18T04:29:50.442Z,15.55
2022-12-18T04:32:17.183Z,16.83
2022-12-18T04:34:43.904Z,16.08
2022-12-18T04:37:10.625Z,16.20
2022-12-18T04:39:37.516Z,15.48
2022-12-18T04:42:04.285Z,14.35
2022-12-18T04:44:32.162Z,15.75
2022-12-18T04:46:58.851Z,14.80
2022-12-18T04:49:26.621Z,14.02
2022-12-18T04:51:54.369Z,13.80
2022-12-18T04:54:22.758Z,14.65
2022-12-18T04:56:50.172Z,14.80
2022-12-18T04:59:17.111Z,15.75
2022-12-18T05:01:45.149Z,16.75
2022-12-18T05:04:12.165Z,15.18
2022-12-18T05:06:38.956Z,16.33
2022-12-18T05:09:05.866Z,16.00
2022-12-18T05:11:32.789Z,16.95
2022-12-18T05:13:59.579Z,16.67
2022-12-18T05:16:26.370Z,15.85
2022-12-18T05:18:54.472Z,15.45
2022-12-18T05:21:22.326Z,16.35
2022-12-18T05:23:49.055Z,17.52
2022-12-18T05:26:19.631Z,15.75
2022-12-18T05:28:47.101Z,15.07
2022-12-18T05:31:14.493Z,18.05
2022-12-18T05:33:41.856Z,17.20
2022-12-18T05:36:10.344Z,18.67
2022-12-18T05:38:39.321Z,16.90
2022-12-18T05:41:07.722Z,18.00
2022-12-18T05:43:37.355Z,18.25
2022-12-18T05:46:14.247Z,18.23
2022-12-18T05:48:41.523Z,18.40
2022-12-18T05:51:11.403Z,19.17
2022-12-18T05:53:39.260Z,18.05
2022-12-18T05:56:11.039Z,17.25
2022-12-18T05:58:40.402Z,18.60
2022-12-18T06:01:16.650Z,17.50
2022-12-18T06:03:44.148Z,18.23
2022-12-18T06:06:23.257Z,17.83
2022-12-18T06:08:51.601Z,17.50
2022-12-18T06:11:21.302Z,16.60
2022-12-18T06:13:53.597Z,16.10
2022-12-18T06:16:24.486Z,17.63
2022-12-18T06:18:53.856Z,17.23
2022-12-18T06:21:20.884Z,17.35
2022-12-18T06:23:48.770Z,16.23
2022-12-18T06:26:15.938Z,15.93
2022-12-18T06:28:42.850Z,16.13
2022-12-18T06:31:10.577Z,16.90
2022-12-18T06:33:38.281Z,17.42
2022-12-18T06:36:09.173Z,17.63
2022-12-18T06:38:37.977Z,16.55
2022-12-18T06:41:12.958Z,18.48
2022-12-18T06:43:40.086Z,16.55
2022-12-18T06:46:07.786Z,18.77
2022-12-18T06:48:34.627Z,18.13
2022-12-18T06:51:04.529Z,18.83
2022-12-18T06:53:32.252Z,19.92
2022-12-18T06:56:10.321Z,18.27
2022-12-18T06:58:38.501Z,18.58
2022-12-18T07:01:07.319Z,18.38
2022-12-18T07:03:34.245Z,18.02
2022-12-18T07:06:01.019Z,19.98
2022-12-18T07:08:30.171Z,18.90
2022-12-18T07:10:58.089Z,18.75
2022-12-18T07:13:25.024Z,18.65
2022-12-18T07:15:51.997Z,17.02
2022-12-18T07:18:18.703Z,17.75
2022-12-18T07:20:46.443Z,17.10
2022-12-18T07:23:14.514Z,18.55
2022-12-18T07:25:43.360Z,19.50
2022-12-18T07:28:15.669Z,19.00
2022-12-18T07:30:44.013Z,19.23
2022-12-18T07:33:10.817Z,16.85
2022-12-18T07:35:37.879Z,20.02
2022-12-18T07:38:04.659Z,18.95
2022-12-18T07:40:31.473Z,19.02
2022-12-18T07:42:58.252Z,18.05
2022-12-18T07:45:25.206Z,19.20
2022-12-18T07:47:53.450Z,19.35
2022-12-18T07:50:20.236Z,18.95
2022-12-18T07:52:47.635Z,18.42
2022-12-18T07:55:15.245Z,19.23
2022-12-18T07:57:50.786Z,18.05
2022-12-18T08:00:18.485Z,18.15
2022-12-18T08:02:45.307Z,17.40
2022-12-18T08:05:12.339Z,16.45
2022-12-18T08:07:39.318Z,16.23
2022-12-18T08:10:07.408Z,17.30
2022-12-18T08:12:34.185Z,17.75
2022-12-18T08:15:01.136Z,19.38
2022-12-18T08:17:29.340Z,16.90
2022-12-18T08:19:56.526Z,17.38
2022-12-18T08:22:23.341Z,18.20
2022-12-18T08:24:50.022Z,14.95
2022-12-18T08:27:32.234Z,18.45
2022-12-18T08:29:59.383Z,18.05
2022-12-18T08:32:27.576Z,19.30
2022-12-18T08:34:54.330Z,18.38
2022-12-18T08:37:21.092Z,17.23
2022-12-18T08:39:47.978Z,16.08
2022-12-18T08:42:33.715Z,19.70
2022-12-18T08:45:00.590Z,18.58
2022-12-18T08:47:27.857Z,20.25
2022-12-18T08:49:55.624Z,18.75
2022-12-18T08:52:22.319Z,19.00
2022-12-18T08:54:49.055Z,19.40
2022-12-18T08:57:15.864Z,19.65
2022-12-18T08:59:43.003Z,20.80
2022-12-18T09:02:12.290Z,19.50
2022-12-18T09:04:40.932Z,19.90
2022-12-18T09:07:08.950Z,19.38
2022-12-18T09:09:37.623Z,20.27
2022-12-18T09:12:04.542Z,18.77
2022-12-18T09:14:31.221Z,20.23
2022-12-18T09:16:57.912Z,19.67
2022-12-18T09:19:24.768Z,20.95
2022-12-18T09:21:51.409Z,12.57
2022-12-18T09:24:18.269Z,20.00
2022-12-18T09:26:47.275Z,18.90
2022-12-18T09:29:15.581Z,18.63
2022-12-18T09:31:43.224Z,19.08
2022-12-18T09:34:09.997Z,20.73
2022-12-18T09:36:36.853Z,21.77
2022-12-18T09:39:08.251Z,22.25
2022-12-18T09:41:41.656Z,27.83
2022-12-18T09:44:32.520Z,24.37
2022-12-18T09:47:17.218Z,19.42
2022-12-18T09:49:46.535Z,19.45
2022-12-18T09:52:26.435Z,20.52
2022-12-18T09:55:05.504Z,20.00
2022-12-18T09:57:36.643Z,18.73
2022-12-18T10:00:19.288Z,19.48
2022-12-18T10:02:46.945Z,20.88
2022-12-18T10:05:18.473Z,20.10
2022-12-18T10:08:00.177Z,19.88
2022-12-18T10:10:51.222Z,19.40
2022-12-18T10:13:41.999Z,20.08
2022-12-18T10:16:20.370Z,20.30
2022-12-18T10:19:38.945Z,16.83
2022-12-18T10:22:36.194Z,19.23
2022-12-18T10:25:23.858Z,19.85
2022-12-18T10:27:58.893Z,18.73
2022-12-18T10:30:27.387Z,19.08
2022-12-18T10:32:55.196Z,19.55
2022-12-18T10:35:24.854Z,21.92
2022-12-18T10:38:18.506Z,20.55
2022-12-18T10:40:52.982Z,20.00
2022-12-18T10:43:33.301Z,19.23
2022-12-18T10:46:08.934Z,20.63
2022-12-18T10:48:54.729Z,19.73
2022-12-18T10:51:27.102Z,20.05
2022-12-18T10:54:00.091Z,20.85
2022-12-18T10:56:29.730Z,22.02
2022-12-18T10:58:59.083Z,21.13
2022-12-18T11:01:26.086Z,20.38
2022-12-18T11:04:00.408Z,20.90
2022-12-18T11:06:29.643Z,20.88
2022-12-18T11:09:13.220Z,20.70
2022-12-18T11:11:42.004Z,17.38
2022-12-18T11:14:22.133Z,19.40
2022-12-18T11:17:23.802Z,23.23
2022-12-18T11:19:42.100Z,21.30
2022-12-18T11:22:41.270Z,20.95
2022-12-18T11:25:33.179Z,19.23
2022-12-18T11:28:03.680Z,18.80
2022-12-18T11:30:33.025Z,19.75
2022-12-18T11:33:23.200Z,20.70
2022-12-18T11:36:04.792Z,20.80
2022-12-18T11:38:35.643Z,20.05
2022-12-18T11:41:47.669Z,20.38
2022-12-18T11:44:23.719Z,20.92
2022-12-18T11:47:02.883Z,20.80
2022-12-18T11:49:36.619Z,20.17
2022-12-18T11:52:15.368Z,20.80
2022-12-18T11:54:42.077Z,20.52
2022-12-18T11:57:30.093Z,19.02
2022-12-18T12:00:13.702Z,21.38
2022-12-18T12:03:11.407Z,20.48
2022-12-18T12:05:56.816Z,18.35
2022-12-18T12:09:04.290Z,19.42
2022-12-18T12:11:49.669Z,19.90
2022-12-18T12:14:25.524Z,22.30
2022-12-18T12:17:03.687Z,19.50
2022-12-18T12:20:00.121Z,20.65
2022-12-18T12:22:44.951Z,22.70
2022-12-18T12:25:41.781Z,20.13
2022-12-18T12:28:38.857Z,22.20
2022-12-18T12:31:50.324Z,21.25
2022-12-18T12:34:46.469Z,23.02
2022-12-18T12:37:32.917Z,21.70
2022-12-18T12:40:11.062Z,21.80
2022-12-18T12:43:15.568Z,21.27
2022-12-18T12:46:08.699Z,20.33
2022-12-18T12:48:49.661Z,15.77
2022-12-18T12:51:27.099Z,21.38
2022-12-18T12:53:57.461Z,21.85
2022-12-18T12:56:28.792Z,17.63
2022-12-18T12:59:05.536Z,21.55
2022-12-18T13:01:39.225Z,23.58
2022-12-18T13:04:28.305Z,21.98
2022-12-18T13:07:02.448Z,18.05
2022-12-18T13:09:34.939Z,21.90
2022-12-18T13:12:27.339Z,22.70
2022-12-18T13:14:54.453Z,23.38
2022-12-18T13:17:21.201Z,23.65
2022-12-18T13:20:15.503Z,24.92
2022-12-18T13:22:51.003Z,24.02
2022-12-18T13:25:32.947Z,26.02
2022-12-18T13:28:26.155Z,22.20
2022-12-18T13:30:58.422Z,23.58
2022-12-18T13:33:31.503Z,23.42
2022-12-18T13:36:13.345Z,23.37
2022-12-18T13:38:41.502Z,24.10
2022-12-18T13:41:08.631Z,25.17
2022-12-18T13:43:49.536Z,22.85
2022-12-18T13:46:31.077Z,23.85
2022-12-18T13:49:13.267Z,24.35
2022-12-18T13:51:50.982Z,23.45
2022-12-18T13:54:36.510Z,23.75
2022-12-18T13:57:05.960Z,25.13
2022-12-18T13:59:41.902Z,19.83
2022-12-18T14:02:16.720Z,24.70
2022-12-18T14:04:47.702Z,25.30
2022-12-18T14:07:18.900Z,25.67
2022-12-18T14:10:06.480Z,23.63
2022-12-18T14:13:02.186Z,25.48
2022-12-18T14:15:45.402Z,25.40
2022-12-18T14:18:25.265Z,18.95
2022-12-18T14:20:55.410Z,26.90
2022-12-18T14:23:32.799Z,27.17
2022-12-18T14:26:05.815Z,25.25
2022-12-18T14:28:33.190Z,23.48
2022-12-18T14:31:01.879Z,25.70
2022-12-18T14:33:29.095Z,24.20
2022-12-18T14:36:01.709Z,23.35
2022-12-18T14:38:34.133Z,25.50
2022-12-18T14:41:03.608Z,22.40
2022-12-18T14:43:34.235Z,21.10
2022-12-18T14:46:03.264Z,22.42
2022-12-18T14:48:42.039Z,24.75
2022-12-18T14:51:11.751Z,25.20
2022-12-18T14:53:50.542Z,25.73
2022-12-18T14:56:32.252Z,24.50
2022-12-18T14:59:06.106Z,26.35
2022-12-18T15:04:04.334Z,24.27
2022-12-18T15:06:36.808Z,25.90
2022-12-18T15:09:26.367Z,25.27
2022-12-18T15:12:01.371Z,26.45
2022-12-18T15:14:31.238Z,23.00
2022-12-18T15:17:02.846Z,23.88
2022-12-18T15:19:43.957Z,25.27
2022-12-18T15:22:23.179Z,26.23
2022-12-18T15:24:51.468Z,26.17
2022-12-18T15:27:31.183Z,27.38
2022-12-18T15:30:09.990Z,27.23
2022-12-18T15:32:38.570Z,26.40
2022-12-18T15:35:16.977Z,24.98
2022-12-18T15:37:44.760Z,27.45
2022-12-18T15:40:23.010Z,26.77
2022-12-18T15:43:11.038Z,22.00
2022-12-18T15:45:39.436Z,25.23
2022-12-18T15:48:22.782Z,26.80
2022-12-18T15:50:54.238Z,23.65
2022-12-18T15:53:21.085Z,23.23
2022-12-18T15:56:06.450Z,25.13
2022-12-18T15:58:34.015Z,26.70
2022-12-18T16:01:01.937Z,27.83
2022-12-18T16:03:30.129Z,27.73
2022-12-18T16:05:59.468Z,26.20
2022-12-18T16:08:26.735Z,25.10
2022-12-18T16:10:55.582Z,25.65
2022-12-18T16:13:24.984Z,25.40
2022-12-18T16:15:52.863Z,26.73
2022-12-18T16:18:19.604Z,25.27
2022-12-18T16:20:46.596Z,116.00
2022-12-18T16:23:13.857Z,24.25
2022-12-18T16:25:42.239Z,27.75
2022-12-18T16:28:08.952Z,25.98
2022-12-18T16:30:38.660Z,25.08
2022-12-18T16:33:07.501Z,23.13
2022-12-18T16:35:34.812Z,28.83
2022-12-18T16:38:01.603Z,22.80
2022-12-18T16:40:28.380Z,25.30
2022-12-18T16:42:55.218Z,27.40
2022-12-18T16:45:24.787Z,25.10
2022-12-18T16:47:51.487Z,27.95
2022-12-18T16:50:18.234Z,26.42
2022-12-18T16:52:45.376Z,31.48
2022-12-18T16:55:13.573Z,26.65
2022-12-18T16:57:40.296Z,25.80
2022-12-18T17:00:08.859Z,25.85
2022-12-18T17:02:37.957Z,26.92
2022-12-18T17:05:05.416Z,28.13
2022-12-18T17:07:32.584Z,26.40
2022-12-18T17:09:59.279Z,26.70
2022-12-18T17:12:26.885Z,24.27
2022-12-18T17:14:53.663Z,25.92
2022-12-18T17:17:23.385Z,22.23
2022-12-18T17:19:51.579Z,28.88
2022-12-18T17:22:18.530Z,27.77
2022-12-18T17:24:46.129Z,26.60
2022-12-18T17:27:13.143Z,25.23
2022-12-18T17:29:45.353Z,28.17
2022-12-18T17:32:14.562Z,27.77
2022-12-18T17:34:41.321Z,26.25
2022-12-18T17:37:08.447Z,29.63
2022-12-18T17:39:35.507Z,29.90
2022-12-18T17:42:03.889Z,30.05
2022-12-18T17:44:32.047Z,28.35
2022-12-18T17:47:00.117Z,29.60
2022-12-18T17:49:27.371Z,29.50
2022-12-18T17:51:54.160Z,28.65
2022-12-18T17:54:21.124Z,28.90
2022-12-18T17:56:48.877Z,31.33
2022-12-18T17:59:15.714Z,30.80
2022-12-18T18:01:45.273Z,29.95
2022-12-18T18:04:13.378Z,25.15
2022-12-18T18:06:40.414Z,29.13
2022-12-18T18:09:16.421Z,29.50
2022-12-18T18:12:05.660Z,29.48
2022-12-18T18:14:33.163Z,29.38
2022-12-18T18:17:04.420Z,24.73
2022-12-18T18:19:31.962Z,29.70
2022-12-18T18:21:58.666Z,28.15
2022-12-18T18:24:26.046Z,29.55
2022-12-18T18:26:53.701Z,30.13
2022-12-18T18:29:23.621Z,30.13
2022-12-18T18:31:53.927Z,29.15
2022-12-18T18:34:23.262Z,29.38
2022-12-18T18:36:51.221Z,30.38
2022-12-18T18:39:20.768Z,24.40
2022-12-18T18:41:48.668Z,28.58
2022-12-18T18:44:17.171Z,30.05
2022-12-18T18:46:44.430Z,29.83
2022-12-18T18:49:11.653Z,30.40
2022-12-18T18:51:38.325Z,26.77
2022-12-18T18:54:05.137Z,29.05
2022-12-18T18:59:19.216Z,27.55
2022-12-18T19:01:53.018Z,32.22
2022-12-18T19:04:20.079Z,29.83
2022-12-18T19:06:47.929Z,29.48
2022-12-18T19:09:15.625Z,33.38
2022-12-18T19:12:01.203Z,30.30
2022-12-18T19:14:28.088Z,30.67
2022-12-18T19:16:54.933Z,30.55
2022-12-18T19:19:22.577Z,28.38
2022-12-18T19:21:50.139Z,30.27
2022-12-18T19:24:16.927Z,29.83
2022-12-18T19:26:46.605Z,31.17
2022-12-18T19:29:14.760Z,28.90
2022-12-18T19:31:41.991Z,30.80
2022-12-18T19:34:09.632Z,31.33
2022-12-18T19:36:39.419Z,29.00
2022-12-18T19:39:15.599Z,27.63
2022-12-18T19:41:42.897Z,29.38
2022-12-18T19:44:12.569Z,32.13
2022-12-18T19:46:41.410Z,28.27
2022-12-18T19:49:18.032Z,29.95
2022-12-18T19:52:00.636Z,29.45
2022-12-18T19:54:27.388Z,30.15
2022-12-18T19:56:54.085Z,28.55
2022-12-18T19:59:20.769Z,30.38
2022-12-18T20:01:47.789Z,30.15
2022-12-18T20:04:14.785Z,30.05
2022-12-18T20:06:51.554Z,26.90
2022-12-18T20:09:21.301Z,30.15
2022-12-18T20:11:48.537Z,29.02
2022-12-18T20:14:22.486Z,28.55
2022-12-18T20:16:51.366Z,29.77
2022-12-18T20:19:19.759Z,28.83
2022-12-18T20:21:47.629Z,29.27
2022-12-18T20:24:15.401Z,28.35
2022-12-18T20:26:42.099Z,30.80
2022-12-18T20:29:12.487Z,28.90
2022-12-18T20:31:40.777Z,28.75
2022-12-18T20:34:07.538Z,31.45
2022-12-18T20:36:37.668Z,29.17
2022-12-18T20:39:06.571Z,30.08
2022-12-18T20:41:38.819Z,29.92
2022-12-18T20:44:13.766Z,29.58
2022-12-18T20:47:02.001Z,30.38
2022-12-18T20:49:34.155Z,30.80
2022-12-18T20:52:03.061Z,29.55
2022-12-18T20:54:29.747Z,31.40
2022-12-18T20:56:56.897Z,32.20
2022-12-18T20:59:25.622Z,30.73
2022-12-18T21:01:52.697Z,31.35
2022-12-18T21:04:22.793Z,30.67
2022-12-18T21:06:55.681Z,30.05
2022-12-18T21:09:37.184Z,29.00
2022-12-18T21:12:30.207Z,28.30
2022-12-18T21:15:02.802Z,29.23
2022-12-18T21:17:29.823Z,30.13
2022-12-18T21:20:00.931Z,29.58
2022-12-18T21:22:28.451Z,29.55
2022-12-18T21:24:55.141Z,29.05
2022-12-18T21:27:21.880Z,29.75
2022-12-18T21:29:48.917Z,29.75
2022-12-18T21:32:18.445Z,29.65
2022-12-18T21:34:48.218Z,29.08
2022-12-18T21:37:15.310Z,29.60
2022-12-18T21:39:43.955Z,28.08
2022-12-18T21:42:32.493Z,28.85
2022-12-18T21:45:01.327Z,26.42
2022-12-18T21:47:28.193Z,29.05
2022-12-18T21:49:56.970Z,28.92
2022-12-18T21:52:27.856Z,29.38
2022-12-18T21:55:03.080Z,28.80
2022-12-18T21:57:34.962Z,28.63
2022-12-18T22:00:02.219Z,27.35
2022-12-18T22:02:29.238Z,28.80
2022-12-18T22:04:56.182Z,26.70
2022-12-18T22:07:25.682Z,28.30
2022-12-18T22:09:54.477Z,28.30
2022-12-18T22:12:35.702Z,26.70
2022-12-18T22:15:13.190Z,29.33
2022-12-18T22:17:48.014Z,27.40
2022-12-18T22:20:15.992Z,27.20
2022-12-18T22:22:42.679Z,28.77
2022-12-18T22:25:13.220Z,27.92
2022-12-18T22:27:40.978Z,28.05
2022-12-18T22:30:08.445Z,26.50
2022-12-18T22:32:36.523Z,28.10
2022-12-18T22:35:10.448Z,29.48
2022-12-18T22:37:40.944Z,28.85
2022-12-18T22:40:10.401Z,27.33
2022-12-18T22:42:40.753Z,25.85
2022-12-18T22:45:07.879Z,22.05
2022-12-18T22:47:34.763Z,28.23
2022-12-18T22:50:01.492Z,26.52
2022-12-18T22:52:28.235Z,28.70
2022-12-18T22:54:55.018Z,26.70
2022-12-18T22:57:22.633Z,25.17
2022-12-18T22:59:52.260Z,30.35
2022-12-18T23:02:19.997Z,29.23
2022-12-18T23:04:48.113Z,28.80
2022-12-18T23:07:15.797Z,24.75
2022-12-18T23:09:42.587Z,28.25
2022-12-18T23:12:15.270Z,26.38
2022-12-18T23:14:42.035Z,27.70
2022-12-18T23:17:08.755Z,26.98
2022-12-18T23:19:35.431Z,27.67
2022-12-18T23:22:03.520Z,27.88
2022-12-18T23:24:32.882Z,26.23
2022-12-18T23:27:00.868Z,29.50
2022-12-18T23:29:28.772Z,30.02
2022-12-18T23:31:55.537Z,28.40
2022-12-18T23:34:22.919Z,27.15
2022-12-18T23:36:53.255Z,27.45
2022-12-18T23:39:29.793Z,27.87
2022-12-18T23:42:02.195Z,27.73
2022-12-18T23:44:30.030Z,26.92
2022-12-18T23:46:57.033Z,27.88
2022-12-18T23:49:23.888Z,30.30
2022-12-18T23:51:53.784Z,29.67
2022-12-18T23:54:30.169Z,26.10
2022-12-18T23:57:00.766Z,28.10
2022-12-18T23:59:27.537Z,26.65
